Terminal Aerodrome Forecast (TAF)

TAF


TAF for:NVSC (Vanua Lava/Sola Airport) issued at 0430 UTC 25 Feb 2018
Text:TAF NVSC 250430Z 2506/2606 11005KT 9999 SCT020 INTER 2506/2512 9000 -SHRA BKN018
Forecast period:0600 UTC 25 February 2018 to 0600 UTC 26 February 2018
Forecast type:FROM: standard forecast or significant change
Winds:from the ESE (110 degrees) at 6 MPH (5 knots; 2.6 m/s)
Visibility:6 or more sm (10+ km)
Ceiling:at least 12,000 feet AGL
Clouds: scattered clouds at 2000 feet AGL
Text:
Forecast period:0600 to 1200 UTC 25 February 2018
Forecast type:TEMPORARY: The following changes expected for less than half the time period
Visibility: 6 sm ( 9 km)
Ceiling:1800 feet AGL
Clouds: broken clouds at 1800 feet AGL
Weather:-SHRA (light rain showers)

TAF


TAF for:NVSG (Ambae/Longana Airport) issued at 0430 UTC 25 Feb 2018
Text:TAF NVSG 250430Z 2506/2606 17005KT 9999 SCT020 BKN040 INTER 2506/2512 9000 -TSRA BKN015 FEW025CB
Forecast period:0600 UTC 25 February 2018 to 0600 UTC 26 February 2018
Forecast type:FROM: standard forecast or significant change
Winds:from the S (170 degrees) at 6 MPH (5 knots; 2.6 m/s)
Visibility:6 or more sm (10+ km)
Ceiling:4000 feet AGL
Clouds: scattered clouds at 2000 feet AGL, broken clouds at 4000 feet AGL
Text:
Forecast period:0600 to 1200 UTC 25 February 2018
Forecast type:TEMPORARY: The following changes expected for less than half the time period
Visibility: 6 sm ( 9 km)
Ceiling:1500 feet AGL
Clouds: broken clouds at 1500 feet AGL, few clouds at 2500 feet AGL
Weather:-TSRA (light rain associated with thunderstorm(s))

TAF


TAF for:NVSS (Santo/Pekoa International Airport) issued at 0430 UTC 25 Feb 2018
Text:TAF NVSS 250430Z 2506/2606 07005KT 9999 SCT020 BKN040 INTER 2506/2512 9000 -TSRA BKN015 FEW025CB
Forecast period:0600 UTC 25 February 2018 to 0600 UTC 26 February 2018
Forecast type:FROM: standard forecast or significant change
Winds:from the ENE (70 degrees) at 6 MPH (5 knots; 2.6 m/s)
Visibility:6 or more sm (10+ km)
Ceiling:4000 feet AGL
Clouds: scattered clouds at 2000 feet AGL, broken clouds at 4000 feet AGL
Text:
Forecast period:0600 to 1200 UTC 25 February 2018
Forecast type:TEMPORARY: The following changes expected for less than half the time period
Visibility: 6 sm ( 9 km)
Ceiling:1500 feet AGL
Clouds: broken clouds at 1500 feet AGL, few clouds at 2500 feet AGL
Weather:-TSRA (light rain associated with thunderstorm(s))

TAF


TAF for:NVSL (Malekula/Lamap Airport) issued at 0430 UTC 25 Feb 2018
Text:TAF NVSL 250430Z 2506/2606 11005KT 9999 SCT020 BKN040 INTER 2506/2512 9000 -TSRA BKN015 FEW025CB
Forecast period:0600 UTC 25 February 2018 to 0600 UTC 26 February 2018
Forecast type:FROM: standard forecast or significant change
Winds:from the ESE (110 degrees) at 6 MPH (5 knots; 2.6 m/s)
Visibility:6 or more sm (10+ km)
Ceiling:4000 feet AGL
Clouds: scattered clouds at 2000 feet AGL, broken clouds at 4000 feet AGL
Text:
Forecast period:0600 to 1200 UTC 25 February 2018
Forecast type:TEMPORARY: The following changes expected for less than half the time period
Visibility: 6 sm ( 9 km)
Ceiling:1500 feet AGL
Clouds: broken clouds at 1500 feet AGL, few clouds at 2500 feet AGL
Weather:-TSRA (light rain associated with thunderstorm(s))

TAF


TAF for:NVSP (Malekula/Norsup Airport) (Norsup Arpt, --, NV) issued at 0430 UTC 25 Feb 2018
Text:TAF NVSP (Malekula/Norsup Airport) 250430Z 2506/2606 12005KT 9999 SCT020 BKN040 INTER 2506/2512 9000 -TSRA BKN015 FEW025CB
Forecast period:0600 UTC 25 February 2018 to 0600 UTC 26 February 2018
Forecast type:FROM: standard forecast or significant change
Winds:from the ESE (120 degrees) at 6 MPH (5 knots; 2.6 m/s)
Visibility:6 or more sm (10+ km)
Ceiling:4000 feet AGL
Clouds: scattered clouds at 2000 feet AGL, broken clouds at 4000 feet AGL
Text:
Forecast period:0600 to 1200 UTC 25 February 2018
Forecast type:TEMPORARY: The following changes expected for less than half the time period
Visibility: 6 sm ( 9 km)
Ceiling:1500 feet AGL
Clouds: broken clouds at 1500 feet AGL, few clouds at 2500 feet AGL
Weather:-TSRA (light rain associated with thunderstorm(s))

TAF


TAF for:NVVV (Efate/Bauerfield International Airport) issued at 0430 UTC 25 Feb 2018
Text:TAF NVVV 250430Z 2506/2606 10005KT 9999 SCT020 BKN040 INTER 2506/2512 9000 -TSRA BKN015 FEW025CB
Forecast period:0600 UTC 25 February 2018 to 0600 UTC 26 February 2018
Forecast type:FROM: standard forecast or significant change
Winds:from the E (100 degrees) at 6 MPH (5 knots; 2.6 m/s)
Visibility:6 or more sm (10+ km)
Ceiling:4000 feet AGL
Clouds: scattered clouds at 2000 feet AGL, broken clouds at 4000 feet AGL
Text:
Forecast period:0600 to 1200 UTC 25 February 2018
Forecast type:TEMPORARY: The following changes expected for less than half the time period
Visibility: 6 sm ( 9 km)
Ceiling:1500 feet AGL
Clouds: broken clouds at 1500 feet AGL, few clouds at 2500 feet AGL
Weather:-TSRA (light rain associated with thunderstorm(s))

TAF


TAF for:NVVW (Tanna/WhiteGrass International Airport) issued at 0430 UTC 25 Feb 2018
Text:TAF NVVW 250430Z 2506/2606 15005KT 9999 SCT020 INTER 2506/2512 9000 -SHRA BKN018
Forecast period:0600 UTC 25 February 2018 to 0600 UTC 26 February 2018
Forecast type:FROM: standard forecast or significant change
Winds:from the SSE (150 degrees) at 6 MPH (5 knots; 2.6 m/s)
Visibility:6 or more sm (10+ km)
Ceiling:at least 12,000 feet AGL
Clouds: scattered clouds at 2000 feet AGL
Text:
Forecast period:0600 to 1200 UTC 25 February 2018
Forecast type:TEMPORARY: The following changes expected for less than half the time period
Visibility: 6 sm ( 9 km)
Ceiling:1800 feet AGL
Clouds: broken clouds at 1800 feet AGL
Weather:-SHRA (light rain showers)

TAF


TAF for:NVVA (Aneityum/Anelcahuat Airport) issued at 0430 UTC 25 Feb 2018
Text:TAF NVVA 250430Z 2506/2606 13008KT 9999 SCT020 INTER 2506/2512 9000 -SHRA BKN018
Forecast period:0600 UTC 25 February 2018 to 0600 UTC 26 February 2018
Forecast type:FROM: standard forecast or significant change
Winds:from the SE (130 degrees) at 9 MPH (8 knots; 4.1 m/s)
Visibility:6 or more sm (10+ km)
Ceiling:at least 12,000 feet AGL
Clouds: scattered clouds at 2000 feet AGL
Text:
Forecast period:0600 to 1200 UTC 25 February 2018
Forecast type:TEMPORARY: The following changes expected for less than half the time period
Visibility: 6 sm ( 9 km)
Ceiling:1800 feet AGL
Clouds: broken clouds at 1800 feet AGL
Weather:-SHRA (light rain showers)

TAF

ADDS TAF Data INFO
IDs: Format: Raw Decoded Include METARs

Data at: 0756 UTC 25 Feb 2018

TAF NVSC 250430Z 2506/2606 11005KT 9999 SCT020 INTER 2506/2512 9000 -SHRA BKN018
 TAF NVSG 250430Z 2506/2606 17005KT 9999 SCT020 BKN040 INTER 2506/2512 9000 -TSRA BKN015 FEW025CB
 TAF NVSS 250430Z 2506/2606 07005KT 9999 SCT020 BKN040 INTER 2506/2512 9000 -TSRA BKN015 FEW025CB
 TAF NVSL 250430Z 2506/2606 11005KT 9999 SCT020 BKN040 INTER 2506/2512 9000 -TSRA BKN015 FEW025CB
 TAF NVSP 250430Z 2506/2606 12005KT 9999 SCT020 BKN040 INTER 2506/2512 9000 -TSRA BKN015 FEW025CB
 TAF NVVV 250430Z 2506/2606 10005KT 9999 SCT020 BKN040 INTER 2506/2512 9000 -TSRA BKN015 FEW025CB
 TAF NVVW 250430Z 2506/2606 15005KT 9999 SCT020 INTER 2506/2512 9000 -SHRA BKN018
 TAF NVVA 250430Z 2506/2606 13008KT 9999 SCT020 INTER 2506/2512 9000 -SHRA BKN018